• Join FlightAware (Why Join?)
  • Login
  • US Flag 
12:54PM EDT


 

Airport Tracker/Info


-or-


 

Live Flight TrackerFlight Track Log ✈ SLI2200 ✈ 07-Sep-2013 ✈ MMCU / CUU - MMMY / MTY

Flight Track Log - Related Links

Times and Time Zones

All times are in EDT time to prevent confusion due to time zone crossing. See the SLI2200 flight status page for this flight to view local times or setup timezone preferences in your user account.

Time Position Orientation Groundspeed Altitude Reporting Facility
EDT Latitude Longitude Course Direction KTS MPH feet Rate Location/Type
08:05AM 28.5827 -105.7071 118° Southeast  Level Estimated
08:06AM 28.5425 -105.6215 118° Southeast  Level Estimated
08:07AM 28.5023 -105.5359 118° Southeast  Level Estimated
08:08AM 28.4620 -105.4503 118° Southeast  Level Estimated
08:09AM 28.4217 -105.3648 118° Southeast  Level Estimated
08:10AM 28.3813 -105.2794 118° Southeast  Level Estimated
08:11AM 28.3409 -105.1941 118° Southeast  Level Estimated
08:12AM 28.3004 -105.1088 118° Southeast  Level Estimated
08:13AM 28.2598 -105.0235 118° Southeast  Level Estimated
08:14AM 28.2192 -104.9384 118° Southeast  Level Estimated
08:15AM 28.1786 -104.8533 118° Southeast  Level Estimated
08:16AM 28.1379 -104.7683 118° Southeast  Level Estimated
08:17AM 28.0972 -104.6833 119° Southeast  Level Estimated
08:18AM 28.0564 -104.5984 119° Southeast  Level Estimated
08:19AM 28.0155 -104.5136 119° Southeast  Level Estimated
08:20AM 27.9746 -104.4288 119° Southeast  Level Estimated
08:21AM 27.9336 -104.3441 119° Southeast  Level Estimated
08:22AM 27.8926 -104.2595 119° Southeast  Level Estimated
08:23AM 27.8515 -104.1749 119° Southeast  Level Estimated
08:24AM 27.8104 -104.0904 119° Southeast  Level Estimated
08:25AM 27.7693 -104.0059 119° Southeast  Level Estimated
08:26AM 27.7280 -103.9215 119° Southeast  Level Estimated
08:27AM 27.6868 -103.8372 119° Southeast  Level Estimated
08:28AM 27.6455 -103.7529 119° Southeast  Level Estimated
08:29AM 27.6041 -103.6687 119° Southeast  Level Estimated
08:30AM 27.5627 -103.5846 119° Southeast  Level Estimated
08:31AM 27.5212 -103.5005 119° Southeast  Level Estimated
08:32AM 27.4797 -103.4165 119° Southeast  Level Estimated
08:33AM 27.4381 -103.3326 119° Southeast  Level Estimated
08:34AM 27.3965 -103.2487 119° Southeast  Level Estimated
08:35AM 27.3548 -103.1649 119° Southeast  Level Estimated
08:36AM 27.3131 -103.0812 119° Southeast  Level Estimated
08:37AM 27.2713 -102.9975 119° Southeast  Level Estimated
08:38AM 27.2295 -102.9139 119° Southeast  Level Estimated
08:39AM 27.1876 -102.8303 119° Southeast  Level Estimated
08:40AM 27.1457 -102.7468 119° Southeast  Level Estimated
08:41AM 27.1037 -102.6634 119° Southeast  Level Estimated
08:42AM 27.0617 -102.5800 119° Southeast  Level Estimated
08:43AM 27.0196 -102.4967 120° Southeast  Level Estimated
08:44AM 26.9775 -102.4134 120° Southeast  Level Estimated
08:45AM 26.9354 -102.3302 120° Southeast  Level Estimated
08:46AM 26.8931 -102.2471 120° Southeast  Level Estimated
08:47AM 26.8509 -102.1641 120° Southeast  Level Estimated
08:48AM 26.8086 -102.0811 120° Southeast  Level Estimated
08:49AM 26.7662 -101.9981 120° Southeast  Level Estimated
08:50AM 26.7238 -101.9152 120° Southeast  Level Estimated
08:51AM 26.6813 -101.8324 120° Southeast  Level Estimated
08:52AM 26.6388 -101.7497 120° Southeast  Level Estimated
08:53AM 26.5963 -101.6670 120° Southeast  Level Estimated
08:54AM 26.5537 -101.5844 120° Southeast  Level Estimated
08:55AM 26.5110 -101.5018 120° Southeast  Level Estimated
08:56AM 26.4683 -101.4193 120° Southeast  Level Estimated
08:57AM 26.4256 -101.3368 120° Southeast  Level Estimated
08:58AM 26.3828 -101.2544 120° Southeast  Level Estimated
08:59AM 26.3399 -101.1721 120° Southeast  Level Estimated
09:00AM 26.2971 -101.0899 120° Southeast  Level Estimated
09:01AM 26.2541 -101.0077 120° Southeast  Level Estimated
09:02AM 26.2111 -100.9255 120° Southeast  Level Estimated
09:03AM 26.1681 -100.8435 120° Southeast  Level Estimated
09:04AM 26.1250 -100.7614 120° Southeast  Level Estimated
09:05AM 26.0819 -100.6795 120° Southeast  Level Estimated
09:06AM 26.0387 -100.5976 120° Southeast  Level Estimated
09:07AM 25.9955 -100.5157 120° Southeast  Level Estimated
09:08AM 25.9523 -100.4340 120° Southeast  Level Estimated
09:09AM 25.9090 -100.3522 120° Southeast  Level Estimated
09:10AM 25.8656 -100.2706 121° Southeast  Level Estimated
09:11AM 25.8222 -100.1890 121° Southeast  Level Estimated
09:12AM 25.7788 -100.1074 121° Southeast  Level Estimated
09:13AM 25.7785 -100.1069 121° Southeast  Level Estimated
09:14AM 25.7785 -100.1069 119° Southeast  Level Estimated
09:15AM 25.7785 -100.1069 119° Southeast  Level Estimated
09:16AM 25.7785 -100.1069 119° Southeast  Level Estimated
09:17AM 25.7785 -100.1069 119° Southeast  Level Estimated
09:18AM 25.7785 -100.1069 119° Southeast  Level Estimated
09:19AM 25.7785 -100.1069 119° Southeast  Level Estimated
09:20AM 25.7785 -100.1069 119° Southeast  Level Estimated
09:21AM 25.7785 -100.1069 119° Southeast  Level Estimated
09:22AM 25.7785 -100.1069 119° Southeast  Level Estimated
09:23AM 25.7785 -100.1069 119° Southeast  Level Estimated
09:24AM 25.7785 -100.1069 119° Southeast  Level Estimated
09:25AM 25.7785 -100.1069 119° Southeast  Level Estimated
09:26AM 25.7785 -100.1069 119° Southeast  Level Estimated
09:27AM 25.7785 -100.1069 119° Southeast  Level Estimated
09:28AM 25.7785 -100.1069 119° Southeast  Level Estimated